Località Giorno Ora Temp. Umid. Relat. Dew Point Press. Atm. Velocità Vento Direz. Vento Precip. Temp.
Min
Temp.
Max
Abano (PD) 23/10/18 17.25 18.9 °C 49 % 7.9 °C 1018.7 hPa 3.2 Km/h SW 0.0 mm  7.4 °C 20.5 °C
Acquapendente (VT) 23/10/18 17.28 16.7 °C 57 % 8.1 °C 1018.5 hPa 3.6 Km/h N 0.0 mm  12.2 °C 19.6 °C
Acquaviva delle Fonti (BA) 23/10/18 17.28 16.7 °C 77 % 12.6 °C 1015.3 hPa 9.6 Km/h NNE 10.4 mm  14.0 °C 18.4 °C
Ala (TN) 23/10/18 17.28 16.9 °C 57 % 8.3 °C 1018.4 hPa 9.6 Km/h SSW 0.0 mm  6.1 °C 18.6 °C
Alleghe (BL) 23/10/18 17.28 9.5 °C 60 % 2.1 °C 1005.1 hPa 0.7 Km/h NE 0.0 mm  5.9 °C 13.0 °C
Alleghe Lago (BL) 23/10/18 17.29 11.4 °C 56 % 2.9 °C 1018.9 hPa 8.0 Km/h SW 0.0 mm  4.8 °C 13.2 °C
Ancona (AN) 23/10/18 17.20 16.3 °C 64 % 9.5 °C 1019.8 hPa 3.2 Km/h W 0.0 mm  15.2 °C 19.0 °C
Ancona loc. Brecce Bianche (AN) 23/10/18 17.19 16.3 °C 57 % 7.8 °C 1022.6 hPa 14.8 Km/h WNW 0.0 mm  14.4 °C 18.8 °C
Ardea (RM) 23/10/18 17.28 21.1 °C 61 % 13.3 °C 1013.1 hPa 0.0 Km/h N 0.0 mm  13.6 °C 26.0 °C
Arenzano (GE) 23/10/18 17.28 20.6 °C 57 % 11.7 °C 1019.5 hPa 4.8 Km/h SW 0.0 mm  16.6 °C 22.3 °C
Arquà Polesine (RO) 23/10/18 17.28 17.8 °C 65 % 11.1 °C 1020.1 hPa 0.0 Km/h WNW 0.0 mm  7.6 °C 20.3 °C
Arzignano loc. Castello (VI) 23/10/18 16.45 18.0 °C 55 % 8.8 °C 1017.3 hPa 1.3 Km/h SSW 0.0 mm  7.9 °C 19.1 °C
Arzignano Tezze (VI) 23/10/18 17.19 17.6 °C 59 % 9.5 °C 1017.7 hPa 0.0 Km/h WNW 0.0 mm  5.0 °C 20.6 °C
Avio (TN) 23/10/18 17.29 18.0 °C 52 % 8.0 °C 1018.4 hPa 0.0 Km/h SSW 0.0 mm  7.7 °C 20.4 °C
Badia Calavena loc. San Valentino (VR) 23/10/18 17.28 11.7 °C 70 % 6.4 °C 1016.6 hPa 11.3 Km/h WNW 0.0 mm  7.6 °C 14.8 °C
Barbara (AN) 23/10/18 17.28 15.5 °C 67 % 9.4 °C 1022.1 hPa 6.8 Km/h NNW 0.0 mm  12.2 °C 16.4 °C
Barcellona P.G. Centro (ME) 23/10/18 17.28 19.0 °C 81 % 15.7 °C 1011.8 hPa 3.2 Km/h SSW 2.4 mm  14.2 °C 21.0 °C
Barcellona Pozzo di Gotto (ME) 23/10/18 17.28 19.3 °C 81 % 16.0 °C 1011.2 hPa 3.7 Km/h SSE 2.0 mm  14.7 °C 20.6 °C
Bellaria Igea Marina (RN) 23/10/18 17.28 17.6 °C 63 % 10.5 °C 1019.3 hPa 0.0 Km/h NNE 0.0 mm  11.1 °C 18.6 °C
Bellaria Igea Marina2 (RN) 23/10/18 17.28 17.7 °C 65 % 11.1 °C 1018.8 hPa 0.0 Km/h N 0.0 mm  11.3 °C 18.7 °C
Bellaria Igea Marina3 (RN) 23/10/18 17.28 26.6 °C 60 % 18.2 °C 1024.3 hPa 40.8 Km/h E 1.6 mm  15.6 °C 26.6 °C
Belluno Castion (BL) 23/10/18 17.00 14.8 °C 60 % 7.1 °C 1018.5 hPa 0.0 Km/h --- 0.2 mm  2.5 °C 16.7 °C
Bernate Ticino fraz. Casate (MI) 23/10/18 17.28 17.6 °C 55 % 8.4 °C 1016.9 hPa 0.0 Km/h WNW 0.0 mm  5.6 °C 18.9 °C
Besenello (TN) 23/10/18 17.28 16.4 °C 52 % 6.6 °C 1019.4 hPa 4.3 Km/h NNE 0.0 mm  3.0 °C 19.4 °C
Bientina (PI) 23/10/18 17.28 21.3 °C 39 % 6.8 °C 1016.9 hPa 5.0 Km/h NW 0.0 mm  13.3 °C 21.8 °C
Bisignano (CS) 23/10/18 17.28 16.2 °C 83 % 13.3 °C 1011.1 hPa 8.4 Km/h N 67.3 mm  13.3 °C 16.2 °C
Bitti (NU) 23/10/18 17.28 15.3 °C 65 % 8.8 °C 1016.9 hPa 6.1 Km/h WSW 0.0 mm  12.3 °C 16.6 °C
Bolognano di Arco (TN) 23/10/18 17.28 16.1 °C 65 % 9.5 °C 1019.5 hPa 0.0 Km/h SW 0.0 mm  5.9 °C 18.6 °C
Bonorva (SS) 23/10/18 17.20 19.7 °C 60 % 11.7 °C 1018.9 hPa 0.0 Km/h NE 0.0 mm  10.8 °C 20.3 °C
Borgo Valsugana (TN) 23/10/18 17.19 14.5 °C 46 % 3.0 °C 1017.8 hPa 0.0 Km/h SSW 0.0 mm  3.6 °C 17.8 °C
Borore (NU) 23/10/18 17.29 17.9 °C 57 % 9.3 °C 1018.3 hPa 12.1 Km/h NW 0.0 mm  11.4 °C 20.0 °C
Brendola (VI) 23/10/18 17.27 18.9 °C 54 % 9.4 °C 1004.0 hPa 5.0 Km/h S 0.0 mm  7.8 °C 24.9 °C
Bresega (PD) 23/10/18 17.28 19.5 °C 51 % 8.9 °C 1018.2 hPa 6.9 Km/h SW 0.0 mm  7.2 °C 20.9 °C
Brolo c/da Parrazzà (ME) 23/10/18 17.25 17.2 °C 84 % 14.4 °C 1012.5 hPa 0.0 Km/h W 17.6 mm  13.8 °C 18.2 °C
Brugine2 (PD) 23/10/18 17.25 17.8 °C 64 % 10.9 °C 1018.7 hPa 0.0 Km/h S 0.0 mm  6.9 °C 20.1 °C
Buccheri (SR) 22/10/18 22.54 10.5 °C 76 % 6.4 °C 1012.6 hPa 14.1 Km/h WSW 4.3 mm  10.5 °C 17.7 °C
Budoia (PN) 23/10/18 17.15 17.0 °C 58 % 8.7 °C 1018.7 hPa 0.0 Km/h SE 0.0 mm  8.0 °C 19.9 °C
Ca' Gallo (PU) 23/10/18 17.19 17.3 °C 65 % 10.7 °C 1015.5 hPa 2.9 Km/h NNW 0.0 mm  13.1 °C 18.1 °C
Calcinato (BS) 23/10/18 17.28 18.4 °C 51 % 8.1 °C 1021.0 hPa 14.5 Km/h NW 0.0 mm  7.9 °C 19.2 °C
Caltabellotta (AG) 23/10/18 17.20 13.1 °C 92 % 11.8 °C 1011.5 hPa 5.0 Km/h NNE 3.4 mm  9.3 °C 16.3 °C
Cammarata (AG) 21/10/18 03.10 15.0 °C 69 % 9.4 °C 1018.8 hPa 1.1 Km/h NE 0.0 mm  14.9 °C 16.8 °C
Campoformido (UD) 23/10/18 17.28 17.2 °C 55 % 8.0 °C 1018.8 hPa 0.0 Km/h WSW 0.0 mm  8.1 °C 18.6 °C
Capodimonte (VT) 23/10/18 17.25 18.0 °C 58 % 9.6 °C 1019.0 hPa 12.1 Km/h NE 0.0 mm  13.3 °C 18.4 °C
Caprarola Centro Storico (VT) 23/10/18 17.28 15.4 °C 55 % 6.4 °C 1018.0 hPa 6.1 Km/h WSW 0.0 mm  10.5 °C 17.8 °C
Carceri (PD) 23/10/18 17.15 19.2 °C 48 % 7.8 °C 1018.2 hPa 11.3 Km/h SW 0.0 mm  8.0 °C 19.7 °C
Carmignano loc. Seano (PO) 23/10/18 17.29 21.2 °C 37 % 5.9 °C 1018.6 hPa 5.8 Km/h NE 0.0 mm  14.4 °C 21.8 °C
Carpi (MO) 23/10/18 17.28 20.0 °C 42 % 6.7 °C 1018.7 hPa 0.0 Km/h S 0.0 mm  6.2 °C 20.7 °C
Cartigliano (VI) 23/10/18 17.28 17.3 °C 50 % 6.8 °C 1017.4 hPa 0.0 Km/h SSW 0.0 mm  5.9 °C 20.6 °C
Casotto (VI) 23/10/18 17.11 15.7 °C 62 % 8.3 °C 1017.2 hPa 0.0 Km/h WNW 0.0 mm  5.9 °C 19.1 °C
Cassano Magnago (VA) 23/10/18 17.20 17.4 °C 59 % 9.4 °C 1019.2 hPa 0.0 Km/h N 0.0 mm  8.1 °C 19.2 °C
Castel d'Azzano (VR) 23/10/18 17.15 18.8 °C 49 % 7.8 °C 915.0 hPa 0.0 Km/h W 0.0 mm  6.9 °C 19.8 °C
Castelferro (AL) 23/10/18 17.28 18.6 °C 52 % 8.5 °C 1020.6 hPa 0.0 Km/h ENE 0.0 mm  5.2 °C 19.1 °C
Castelfranco Veneto (TV) 23/10/18 17.20 18.3 °C 56 % 9.3 °C 1018.8 hPa 0.9 Km/h SW 0.0 mm  6.8 °C 20.1 °C
Castelgomberto (VI) 23/10/18 17.29 17.6 °C 52 % 7.6 °C 1017.2 hPa 1.9 Km/h S 0.0 mm  7.9 °C 20.1 °C
Castelnuovo V.C. (PI) 23/10/18 17.23 14.5 °C 63 % 7.5 °C 1019.5 hPa 0.2 Km/h ENE 0.0 mm  8.3 °C 15.3 °C
Castiglione del Lago (PG) 23/10/18 17.20 17.7 °C 55 % 8.5 °C 1021.1 hPa 9.7 Km/h NW 0.0 mm  13.2 °C 19.1 °C
Castiglione della Pescaia Vaticino (GR) 23/10/18 17.19 20.1 °C 39 % 5.7 °C 1009.4 hPa 8.2 Km/h ENE 0.0 mm  14.1 °C 21.4 °C
Cavazzale (VI) 22/10/18 20.50 11.2 °C 75 % 7.0 °C 1022.5 hPa 0.0 Km/h --- 0.0 mm  6.2 °C 20.1 °C
Cefalù (PA) 23/10/18 17.28 17.4 °C 83 % 14.5 °C 1008.9 hPa 0.9 Km/h NNE 12.9 mm  13.4 °C 17.9 °C
Cerea (VR) 23/10/18 07.30 5.8 °C 90 % 4.3 °C 1024.1 hPa 0.0 Km/h WSW 0.0 mm  5.8 °C 9.2 °C
Cerea2 (VR) 23/10/18 17.15 19.8 °C 37 % 4.7 °C 1020.0 hPa 9.7 Km/h WSW 0.0 mm  6.6 °C 20.2 °C
Cima Grappa (TV) 23/10/18 17.28 11.1 °C 28 % -6.8 °C 1021.1 hPa 13.7 Km/h NW 0.0 mm  4.3 °C 11.6 °C
Cismon del Grappa loc. Corlo (VI) 23/10/18 17.29 14.3 °C 67 % 8.3 °C 1019.6 hPa 5.8 Km/h SSE 0.0 mm  4.3 °C 16.8 °C
Civita Castellana (VT) 23/10/18 17.29 20.1 °C 47 % 8.4 °C 1017.0 hPa 13.3 Km/h NNE 0.0 mm  12.6 °C 21.9 °C
Codroipo (UD) 23/10/18 17.28 18.0 °C 48 % 6.9 °C 1018.3 hPa 0.0 Km/h SW 0.0 mm  7.0 °C 20.2 °C
Cogollo del Cengio (VI) 23/10/18 17.25 15.4 °C 45 % 3.5 °C 1017.1 hPa 2.2 Km/h E 0.0 mm  6.8 °C 18.2 °C
Cologna Veneta Sant'Andrea (VR) 23/10/18 17.20 18.8 °C 51 % 8.4 °C 1018.6 hPa 4.8 Km/h W 0.0 mm  5.4 °C 20.0 °C
Colognola ai Colli (VR) 23/10/18 17.20 17.8 °C 58 % 9.5 °C 1018.7 hPa 3.2 Km/h W 0.0 mm  7.2 °C 19.8 °C
Corrubio di S. Anna d'Alfaedo (VR) 23/10/18 17.25 11.8 °C 71 % 6.7 °C 1020.9 hPa 0.0 Km/h N 0.0 mm  7.5 °C 13.1 °C
Costa di Vittorio Veneto (TV) 23/10/18 17.19 17.6 °C 56 % 8.7 °C 1017.5 hPa 0.0 Km/h SW 0.0 mm  8.7 °C 20.0 °C
Costa Volpino (BG) 23/10/18 17.23 15.7 °C 51 % 5.6 °C 1016.6 hPa 0.4 Km/h ENE 0.0 mm  7.5 °C 18.1 °C
Crespano del Grappa2 (TV) 20/10/18 21.06 22.6 °C 61 % 14.7 °C 1015.0 hPa 5.6 Km/h N 0.0 mm  22.6 °C 22.6 °C
Dorno (PV) 23/10/18 17.28 19.6 °C 53 % 9.8 °C 1020.3 hPa 2.2 Km/h W 0.0 mm  5.8 °C 19.8 °C
Dossobuono (VR) 23/10/18 17.28 18.6 °C 50 % 7.9 °C 1020.1 hPa 11.3 Km/h W 0.0 mm  7.6 °C 19.8 °C
Erbezzo Passo Fittanze (VR) 23/10/18 17.19 11.0 °C 46 % -0.2 °C 1021.2 hPa 5.0 Km/h WNW 0.0 mm  4.7 °C 12.2 °C
Esine (BS) 23/10/18 17.28 15.1 °C 66 % 8.7 °C 1019.0 hPa 3.2 Km/h ENE 0.0 mm  7.3 °C 18.2 °C
Falzè di Piave (TV) 23/10/18 17.28 16.2 °C 63 % 9.1 °C 1019.5 hPa 0.0 Km/h --- 0.2 mm  4.0 °C 20.2 °C
Farra di Soligo (TV) 23/10/18 17.29 15.0 °C 56 % 6.3 °C 1013.4 hPa 0.0 Km/h SSW 0.0 mm  6.1 °C 18.0 °C
Feltre Celarda (BL) 23/10/18 17.29 12.9 °C 82 % 9.9 °C 1017.8 hPa 0.0 Km/h NNE 0.0 mm  0.5 °C 17.4 °C
Ferrara di M.B. (VR) 23/10/18 17.15 11.6 °C 55 % 2.9 °C 1015.8 hPa 0.0 Km/h --- 0.0 mm  4.1 °C 13.4 °C
Fiavè loc. Ballino (TN) 23/10/18 17.28 11.0 °C 72 % 6.1 °C 1019.9 hPa 0.0 Km/h WSW 0.0 mm  5.1 °C 15.9 °C
Filo di Argenta (FE) 23/10/18 17.25 18.2 °C 54 % 8.7 °C 1020.0 hPa 2.6 Km/h WSW 0.0 mm  6.9 °C 20.2 °C
Fogliano Redipuglia (GO) 23/10/18 17.29 18.1 °C 44 % 5.6 °C 1018.8 hPa 4.7 Km/h NW 0.0 mm  7.3 °C 23.0 °C
Foligno (PG) 23/10/18 17.10 18.3 °C 52 % 8.2 °C 1018.3 hPa 14.5 Km/h ENE 0.0 mm  13.2 °C 19.4 °C
Fontanafredda (PN) 23/10/18 17.29 16.7 °C 64 % 9.8 °C 1017.8 hPa 8.0 Km/h SW 0.0 mm  3.6 °C 20.4 °C
Fumane Contrada La Ca (VR) 23/10/18 17.19 14.8 °C 62 % 7.6 °C 1021.2 hPa 0.0 Km/h SE 0.0 mm  8.8 °C 16.9 °C
Gaggiano (MI) 23/10/18 17.29 18.8 °C 51 % 8.5 °C 1019.3 hPa 5.5 Km/h W 0.0 mm  6.8 °C 19.8 °C
Gallio (VI) 23/10/18 17.15 10.1 °C 73 % 5.4 °C 1019.5 hPa 1.6 Km/h NE 0.0 mm  3.3 °C 14.1 °C
Gardolo (TN) 23/10/18 17.28 15.4 °C 55 % 6.4 °C 1019.0 hPa 0.0 Km/h NE 0.0 mm  2.1 °C 18.9 °C
Genova Erzelli (GE) 23/10/18 17.23 22.0 °C 46 % 9.8 °C 1018.6 hPa 4.8 Km/h SW 0.0 mm  12.9 °C 22.2 °C
Gradisca d'Isonzo (GO) 23/10/18 17.29 17.9 °C 50 % 7.3 °C 1019.6 hPa 0.0 Km/h WNW 0.0 mm  5.6 °C 20.8 °C
Iglesias (CI) 23/10/18 17.29 19.8 °C 59 % 11.6 °C 1020.5 hPa 4.7 Km/h N 0.0 mm  12.6 °C 22.3 °C
Isera loc. Reviano (TN) 23/10/18 17.29 15.8 °C 53 % 6.2 °C 1017.7 hPa 3.0 Km/h NNW 0.0 mm  4.5 °C 18.2 °C
Isola d'Elba Marina di Campo (LI) 23/10/18 17.15 19.5 °C 63 % 12.3 °C 558.3 hPa 12.9 Km/h NNW 0.0 mm  15.2 °C 20.7 °C
Lavis (TN) 23/10/18 17.25 16.4 °C 47 % 5.0 °C 1018.7 hPa 13.0 Km/h ESE 0.0 mm  0.9 °C 18.0 °C
Laxolo (BG) 23/10/18 17.26 14.4 °C 57 % 6.0 °C 1017.3 hPa 0.0 Km/h W 0.0 mm  4.9 °C 16.6 °C
Legnago (VR) 23/10/18 17.25 18.9 °C 50 % 8.3 °C 1018.9 hPa 0.0 Km/h E 0.0 mm  7.0 °C 19.8 °C
Lendinara2 (RO) 23/10/18 17.19 18.5 °C 48 % 7.3 °C 1019.2 hPa 1.6 Km/h W 0.0 mm  5.9 °C 20.1 °C
Lesmo (MB) 23/10/18 17.15 17.3 °C 56 % 8.5 °C 1020.4 hPa 0.0 Km/h SW 0.0 mm  3.9 °C 19.2 °C
Loano (SV) 23/10/18 17.25 22.1 °C 46 % 9.9 °C 1018.7 hPa 5.0 Km/h N 0.0 mm  16.4 °C 23.7 °C
Lovere (BG) 23/10/18 17.18 16.6 °C 51 % 0.0 °C 1020.0 hPa 0.0 Km/h N 0.0 mm  8.5 °C 18.7 °C
Lugagnano (VR) 23/10/18 17.28 18.1 °C 53 % 8.3 °C 1017.5 hPa 6.5 Km/h WNW 0.0 mm  7.7 °C 19.4 °C
Lusiana Sciessere (VI) 23/10/18 17.29 11.9 °C 67 % 6.0 °C 1020.1 hPa 0.0 Km/h E 0.0 mm  7.3 °C 15.4 °C
Malnate San Salvatore (VA) 23/10/18 17.20 16.1 °C 70 % 10.6 °C 1021.0 hPa 0.0 Km/h S 0.0 mm  5.2 °C 18.7 °C
Marano Vicentino2 (VI) 23/10/18 17.25 17.3 °C 57 % 8.7 °C 1017.3 hPa 0.0 Km/h E 0.0 mm  6.0 °C 18.7 °C
Margone (TN) 23/10/18 17.25 10.6 °C 65 % 4.3 °C 1021.9 hPa 4.3 Km/h SSW 0.0 mm  5.9 °C 15.0 °C
Marina di Montemarciano (AN) 23/10/18 17.25 17.1 °C 62 % 9.7 °C 1020.0 hPa 3.2 Km/h N 0.0 mm  15.4 °C 18.2 °C
Marta (VT) 23/10/18 09.36 0.0 °C 0 % 15.2 °C 1018.6 hPa 0.0 Km/h N 0.0 mm  0.0 °C 0.0 °C
Masiera di Bagnacavallo (RA) 23/10/18 17.25 18.7 °C 55 % 9.5 °C 1018.6 hPa 3.2 Km/h NNW 0.0 mm  7.9 °C 19.5 °C
Massone di Arco (TN) 23/10/18 17.29 16.4 °C 58 % 8.1 °C 1018.0 hPa 0.0 Km/h SSO 0.0 mm  7.4 °C 17.7 °C
Merlara (PD) 23/10/18 17.20 18.0 °C 53 % 8.3 °C 1018.3 hPa 12.9 Km/h WNW 0.0 mm  4.9 °C 19.3 °C
Mezzana Bigli (PV) 23/10/18 17.25 18.3 °C 54 % 8.8 °C 1019.3 hPa 0.0 Km/h S 0.0 mm  4.7 °C 19.9 °C
Migliarino (FE) 23/10/18 17.28 20.0 °C 39 % 5.6 °C 1018.7 hPa 1.1 Km/h N 0.0 mm  9.7 °C 22.0 °C
Miglionico (MT) 23/10/18 17.20 14.2 °C 82 % 11.1 °C 1012.9 hPa 16.1 Km/h NNW 2.2 mm  11.8 °C 16.4 °C
Miola di Piné (TN) 23/10/18 17.29 11.7 °C 50 % 1.6 °C 1020.5 hPa 3.7 Km/h SSW 0.0 mm  3.7 °C 15.2 °C
Mirabella Imbaccari (CT) 23/10/18 17.25 17.6 °C 69 % 11.8 °C 1010.5 hPa 7.4 Km/h NE 0.0 mm  10.2 °C 19.1 °C
Mizzole (VR) 23/10/18 17.28 17.3 °C 58 % 9.0 °C 1018.9 hPa 0.0 Km/h SE 0.0 mm  9.8 °C 19.6 °C
Molina (VR) 23/10/18 17.19 13.5 °C 57 % 5.1 °C 1021.3 hPa 0.0 Km/h N 0.0 mm  4.8 °C 15.7 °C
Monasterolo Torinese (TO) 23/10/18 17.20 16.7 °C 62 % 9.3 °C 1016.1 hPa 0.0 Km/h NW 0.0 mm  8.0 °C 17.9 °C
Moneglia loc. Casale (GE) 23/10/18 17.29 20.6 °C 50 % 9.8 °C 1020.8 hPa 0.0 Km/h WNW 0.0 mm  13.7 °C 21.1 °C
Moneglia loc. La Secca (GE) 23/10/18 17.29 17.1 °C 60 % 9.3 °C 1017.9 hPa 11.3 Km/h W 0.0 mm  17.1 °C 17.1 °C
Mongrando San Michele (BI) 23/10/18 17.20 16.4 °C 70 % 10.9 °C 1020.2 hPa 0.0 Km/h --- 0.2 mm  6.1 °C 18.3 °C
Monselice (PD) 23/10/18 17.28 19.4 °C 42 % 6.1 °C 1012.3 hPa 6.1 Km/h W 0.0 mm  9.5 °C 20.7 °C
Montebello Vicentino loc. Selva (VI) 23/10/18 17.29 16.9 °C 36 % 1.7 °C 1020.0 hPa 11.1 Km/h WNW 0.0 mm  10.8 °C 19.2 °C
Montecchio Maggiore Sant'Urbano (VI) 23/10/18 17.14 16.9 °C 43 % 4.2 °C 1024.6 hPa 10.0 Km/h S 0.0 mm  9.3 °C 19.5 °C
Montelabbate (PU) 23/10/18 17.21 17.3 °C 62 % 9.9 °C 1014.4 hPa 3.9 Km/h NE 0.0 mm  13.2 °C 18.4 °C
Montespertoli (FI) 23/10/18 17.19 20.0 °C 31 % 2.3 °C 1020.7 hPa 6.6 Km/h N 0.0 mm  13.0 °C 20.3 °C
Montopoli in val d'Arno Loc. Capanne (PI) 23/10/18 17.15 22.7 °C 36 % 6.7 °C 1018.7 hPa 1.3 Km/h ESE 0.0 mm  12.5 °C 22.7 °C
Montorio (VR) 23/10/18 17.19 18.4 °C 51 % 8.1 °C 1020.9 hPa 3.2 Km/h WNW 0.0 mm  9.4 °C 19.3 °C
Montorso Vicentino (VI) 23/10/18 17.29 15.7 °C 58 % 7.5 °C 1018.1 hPa 27.4 Km/h W 0.0 mm  9.9 °C 17.6 °C
Musigliano (PI) 23/10/18 17.27 21.1 °C 46 % 9.0 °C 1018.6 hPa 6.0 Km/h WNW 0.0 mm  11.0 °C 23.6 °C
Muzzano (BI) 23/10/18 17.20 17.0 °C 61 % 9.4 °C 1018.6 hPa 0.0 Km/h SE 0.0 mm  9.5 °C 17.4 °C
Nichelino (TO) 23/10/18 17.20 19.4 °C 45 % 7.1 °C 1021.9 hPa 1.6 Km/h SSE 0.0 mm  6.6 °C 20.3 °C
Novara (NO) 23/10/18 17.20 19.2 °C 54 % 9.6 °C 1019.3 hPa 0.0 Km/h SW 0.0 mm  6.1 °C 20.0 °C
Onara extraurbana (PD) 23/10/18 17.24 17.9 °C 56 % 9.0 °C 1013.9 hPa 0.2 Km/h ENE 0.0 mm  5.4 °C 20.8 °C
Oristano (OR) 23/10/18 17.29 20.8 °C 60 % 12.7 °C 1017.6 hPa 16.3 Km/h NW 0.2 mm  12.8 °C 23.7 °C
Orosei (NU) 23/10/18 17.25 19.5 °C 62 % 12.0 °C 1018.0 hPa 4.8 Km/h NNE 0.0 mm  16.4 °C 21.2 °C
Ortonovo (SP) 23/10/18 17.28 22.3 °C 44 % 9.5 °C 1016.0 hPa 6.3 Km/h SW 0.0 mm  13.4 °C 22.4 °C
Orvieto (TR) 23/10/18 13.46 13.0 °C 74 % 8.5 °C 1017.4 hPa 3.9 Km/h NE 0.0 mm  11.2 °C 13.1 °C
Ovaro loc. Liariis (UD) 23/10/18 17.15 12.8 °C 70 % 7.5 °C 1019.8 hPa 0.0 Km/h ENE 0.0 mm  4.6 °C 17.1 °C
Pace del Mela (ME) 23/10/18 12.38 20.6 °C 61 % 12.8 °C 1012.1 hPa 8.2 Km/h W 0.0 mm  13.6 °C 21.0 °C
Padergnone (TN) 23/10/18 17.15 15.9 °C 58 % 7.6 °C 1020.3 hPa 1.5 Km/h S 0.0 mm  3.3 °C 19.2 °C
Parella (TO) 23/10/18 17.19 18.2 °C 63 % 11.0 °C 1018.5 hPa 0.0 Km/h W 0.0 mm  7.7 °C 18.9 °C
Pastrengo (VR) 23/10/18 13.12 16.8 °C 53 % 7.2 °C 1024.8 hPa 6.1 Km/h S 0.0 mm  8.5 °C 16.8 °C
Pastrengo Corné (VR) 23/10/18 17.29 17.3 °C 57 % 8.7 °C 1017.6 hPa 3.2 Km/h WSW 0.0 mm  7.9 °C 18.2 °C
Pecetto Torinese (TO) 23/10/18 17.19 17.9 °C 53 % 8.2 °C 1020.2 hPa 0.0 Km/h SSW 0.0 mm  8.3 °C 18.9 °C
Pedara (CT) 23/10/18 17.28 16.6 °C 61 % 9.0 °C 931.0 hPa 8.0 Km/h NNE 0.0 mm  10.2 °C 18.2 °C
Pedemonte (VR) 23/10/18 17.20 18.0 °C 55 % 8.8 °C 1018.8 hPa 2.0 Km/h W 0.0 mm  6.1 °C 19.1 °C
Perarolo di Arcugnano (VI) 23/10/18 17.29 16.3 °C 57 % 7.8 °C 988.4 hPa 5.0 Km/h SSW 0.0 mm  7.1 °C 18.5 °C
Perugia San Mariano (PG) 23/10/18 17.15 17.4 °C 51 % 7.1 °C 1019.2 hPa 3.7 Km/h NNW 0.0 mm  13.1 °C 18.7 °C
Peschiera del Garda (VR) 23/10/18 17.20 18.5 °C 53 % 8.7 °C 1019.3 hPa 11.3 Km/h WSW 0.0 mm  8.1 °C 19.3 °C
Pian di Castagné (VR) 23/10/18 17.15 14.9 °C 59 % 7.0 °C 1019.2 hPa 12.9 Km/h W 0.0 mm  11.3 °C 16.2 °C
Pian di Castagné2 (VR) 23/10/18 17.19 14.2 °C 65 % 7.7 °C 1019.5 hPa 32.3 Km/h W 0.0 mm  9.8 °C 15.7 °C
Pila Valsesia (VC) 23/10/18 17.20 14.4 °C 67 % 8.4 °C 1018.8 hPa 0.0 Km/h NW 0.2 mm  3.3 °C 19.0 °C
Piovà Massaia (AT) 23/10/18 17.28 17.1 °C 62 % 9.8 °C 1018.9 hPa 0.0 Km/h ESE 0.0 mm  5.7 °C 18.3 °C
Piraino contr. Fiumara (ME) 23/10/18 17.20 17.9 °C 88 % 15.9 °C 1012.9 hPa 0.0 Km/h E 15.0 mm  13.1 °C 19.1 °C
Pisa zona I Passi (PI) 23/10/18 17.29 20.2 °C 39 % 5.8 °C 1019.3 hPa 10.4 Km/h W 0.0 mm  10.3 °C 21.8 °C
Pojana Maggiore Cagnano (VI) 23/10/18 17.27 18.7 °C 44 % 6.2 °C 1016.0 hPa 8.0 Km/h 0.0 mm  6.0 °C 20.4 °C
Pomezia (RM) 23/10/18 17.29 21.2 °C 61 % 13.4 °C 1014.9 hPa 0.0 Km/h SW 0.0 mm  13.3 °C 22.6 °C
Ponte San Nicolò (PD) 23/10/18 17.19 19.2 °C 48 % 7.9 °C 1018.2 hPa 3.2 Km/h SW 0.0 mm  8.7 °C 20.3 °C
Ponte San Pellegrino (MO) 23/10/18 17.24 19.3 °C 42 % 6.1 °C 1022.4 hPa 0.0 Km/h SW 0.0 mm  6.6 °C 19.5 °C
Pordenone (PN) 23/10/18 17.20 18.8 °C 50 % 8.1 °C 1018.3 hPa 0.0 Km/h --- 0.0 mm  6.7 °C 21.2 °C
Pozzolo Formigaro (AL) 23/10/18 17.20 17.6 °C 54 % 8.2 °C 1020.9 hPa 0.0 Km/h NW 0.0 mm  4.1 °C 18.7 °C
Pray (BI) 23/10/18 15.30 16.6 °C 65 % 10.0 °C 1021.3 hPa 3.0 Km/h WSW 0.2 mm  3.7 °C 18.1 °C
Reggello (FI) 23/10/18 17.28 17.3 °C 51 % 7.1 °C 1021.7 hPa 6.4 Km/h E 0.0 mm  10.6 °C 18.1 °C
Rifugio Bocca di Selva (VR) 23/10/18 17.29 11.1 °C 33 % -4.6 °C 1020.2 hPa 27.4 Km/h N 0.0 mm  4.9 °C 11.7 °C
Rifugio Fiori del Baldo (VR) 23/10/18 17.15 9.3 °C 27 % -8.2 °C 1025.0 hPa 9.5 Km/h NW 0.0 mm  4.3 °C 10.5 °C
Rifugio Primaneve (VR) 23/10/18 17.19 9.3 °C 32 % -6.6 °C 1020.8 hPa 17.7 Km/h NNW 0.0 mm  4.3 °C 9.3 °C
Rimini (RN) 23/10/18 17.20 17.9 °C 63 % 10.8 °C 1020.1 hPa 0.0 Km/h N 0.0 mm  12.3 °C 19.0 °C
Rimini Zona Palas (RN) 23/10/18 17.15 17.3 °C 68 % 11.1 °C 1020.2 hPa 3.2 Km/h NNW 0.0 mm  11.9 °C 18.2 °C
Rivalta sul Mincio (MN) 23/10/18 17.22 19.5 °C 48 % 8.2 °C 1019.7 hPa 10.0 Km/h SW 0.0 mm  5.8 °C 20.6 °C
Romano d'Ezzelino Fellette (VI) 23/10/18 17.29 17.5 °C 53 % 7.8 °C 1020.7 hPa 0.0 Km/h SSE 0.0 mm  7.5 °C 19.6 °C
Ronciglione Centro (VT) 23/10/18 17.25 17.0 °C 42 % 4.0 °C 1016.0 hPa 3.9 Km/h NE 0.0 mm  11.6 °C 19.5 °C
Rosolina (RO) 23/10/18 17.15 19.1 °C 53 % 9.3 °C 1019.7 hPa 8.0 Km/h SW 0.0 mm  9.1 °C 20.8 °C
S. Giovanni Ilarione2 (VR) 23/10/18 17.25 17.2 °C 54 % 7.8 °C 1017.9 hPa 3.2 Km/h WNW 0.0 mm  7.1 °C 19.2 °C
S. Giovanni Lupatoto (VR) 23/10/18 17.20 19.2 °C 51 % 8.8 °C 1019.9 hPa 0.0 Km/h NW 0.0 mm  8.3 °C 20.6 °C
S. Lorenzo di Vittorio Veneto (TV) 23/10/18 17.26 16.1 °C 62 % 8.8 °C 1019.2 hPa 0.0 Km/h SSW 0.0 mm  10.0 °C 18.6 °C
S. Lorenzo Nuovo (VT) 23/10/18 17.28 15.6 °C 58 % 7.4 °C 1015.6 hPa 10.1 Km/h N 0.0 mm  10.3 °C 17.1 °C
S. Maria di Zevio Loc. 3 Ponti (VR) 23/10/18 17.28 20.7 °C 55 % 11.1 °C 1020.2 hPa 0.0 Km/h W 0.0 mm  8.2 °C 22.3 °C
S. Maria Maddalena (RO) 23/10/18 17.25 16.7 °C 68 % 11.1 °C 1018.4 hPa 0.0 Km/h WSW 0.0 mm  8.1 °C 20.0 °C
S. Martino Lupari (PD) 23/10/18 17.20 18.1 °C 60 % 10.2 °C 822.0 hPa 1.6 Km/h S 0.0 mm  6.5 °C 20.0 °C
S. Zeno di Mont. Prada (VR) 23/10/18 17.20 11.1 °C 72 % 6.3 °C 1019.8 hPa 0.0 Km/h --- 0.0 mm  3.8 °C 13.9 °C
Sacile (PN) 23/10/18 17.15 18.1 °C 46 % 6.3 °C 1018.5 hPa 6.4 Km/h SSW 0.0 mm  5.2 °C 20.2 °C
Sacile2 (PN) 23/10/18 17.15 17.7 °C 60 % 9.7 °C 1019.1 hPa 1.1 Km/h WSW 0.0 mm  4.4 °C 20.2 °C
San Benedetto del Tronto (AP) 23/10/18 17.00 18.5 °C 54 % 9.0 °C 1017.5 hPa 3.7 Km/h N 0.0 mm  14.0 °C 19.7 °C
San Cataldo (CL) 23/10/18 17.29 14.8 °C 71 % 9.6 °C 1009.4 hPa 22.4 Km/h N 1.4 mm  8.6 °C 15.4 °C
San Giovanni la Punta Trappeto (CT) 21/10/18 17.30 20.3 °C 83 % 17.4 °C 1015.9 hPa 4.8 Km/h NE 0.0 mm  16.1 °C 22.3 °C
San Nazario (VI) 23/10/18 17.13 17.1 °C 51 % 6.9 °C 1017.5 hPa 1.1 Km/h NW 0.0 mm  8.7 °C 21.5 °C
San Pietro di Rosà (VI) 23/10/18 17.28 0.0 °C 0 % 0.0 °C 0.0 hPa 0.0 Km/h N 0.0 mm  6.8 °C 10.9 °C
San Pietro in Cariano (VR) 23/10/18 17.19 17.6 °C 51 % 7.4 °C 1019.9 hPa 2.6 Km/h S 0.0 mm  7.9 °C 18.6 °C
San Potito Lugo (RA) 22/10/18 17.25 15.8 °C 62 % 8.5 °C 1011.6 hPa 0.0 Km/h NW 0.0 mm  0.0 °C 19.5 °C
San Salvo3 (CH) 23/10/18 17.29 16.8 °C 68 % 10.8 °C 1015.8 hPa 12.9 Km/h NW 2.0 mm  12.8 °C 18.3 °C
San Vito di Negrar (VR) 23/10/18 17.25 17.7 °C 53 % 8.0 °C 1020.8 hPa 1.6 Km/h SW 0.0 mm  8.3 °C 19.6 °C
San Zeno di Mont. Loc. Castello (VR) 23/10/18 17.29 13.1 °C 63 % 6.1 °C 1018.9 hPa 0.0 Km/h NNW 0.0 mm  6.8 °C 14.1 °C
Santa Maria di Negrar (VR) 23/10/18 17.19 17.1 °C 59 % 9.0 °C 1019.9 hPa 0.0 Km/h WNW 0.0 mm  7.7 °C 20.1 °C
Sarcedo (VI) 23/10/18 17.29 17.8 °C 53 % 8.1 °C 1016.7 hPa 0.0 Km/h ESE 0.0 mm  5.9 °C 20.6 °C
Savelli (KR) 23/10/18 17.29 11.2 °C 97 % 10.7 °C 1013.4 hPa 7.2 Km/h ENE 0.0 mm  9.1 °C 11.4 °C
Schio (VI) 23/10/18 17.05 18.2 °C 52 % 8.1 °C 1019.6 hPa 0.0 Km/h --- 0.0 mm  7.8 °C 21.2 °C
Schio Monte Magré (VI) 23/10/18 17.29 14.3 °C 76 % 10.1 °C 0.0 hPa 0.0 Km/h W 0.0 mm  7.4 °C 17.5 °C
Seremange Erzange (Moselle) 23/10/18 17.28 12.8 °C 67 % 6.8 °C 1026.3 hPa 7.9 Km/h NW 0.0 mm  3.9 °C 13.2 °C
Sinnai (CA) 23/10/18 17.10 21.3 °C 57 % 12.4 °C 1018.3 hPa 3.2 Km/h NW 0.0 mm  12.3 °C 22.4 °C
Soave Borgo Bassano (VR) 23/10/18 17.25 18.8 °C 53 % 9.0 °C 1018.9 hPa 3.0 Km/h WSW 0.0 mm  6.9 °C 20.2 °C
Sona Loc. La Colombara (VR) 23/10/18 17.00 18.7 °C 54 % 8.9 °C 1015.9 hPa 5.0 Km/h S 0.0 mm  4.6 °C 19.1 °C
Soriso (NO) 23/10/18 17.20 15.8 °C 71 % 10.5 °C 1020.7 hPa 0.0 Km/h ENE 0.0 mm  7.6 °C 17.9 °C
Staranzano (GO) 23/10/18 17.10 18.1 °C 50 % 7.5 °C 1019.2 hPa 0.0 Km/h W 0.0 mm  7.4 °C 19.6 °C
Stiore - Monteveglio (BO) 23/10/18 17.29 18.0 °C 49 % 7.1 °C 1016.4 hPa 0.0 Km/h WNW 0.0 mm  6.7 °C 19.8 °C
Taio Mollaro (TN) 23/10/18 17.28 13.2 °C 62 % 6.1 °C 1019.9 hPa 0.0 Km/h W 0.0 mm  1.2 °C 17.3 °C
Taranto (TA) 23/10/18 17.25 19.9 °C 61 % 12.2 °C 1010.6 hPa 9.5 Km/h NE 3.0 mm  15.4 °C 21.6 °C
Tombolo (PD) 23/10/18 17.29 17.8 °C 57 % 9.2 °C 1018.8 hPa 0.6 Km/h SW 0.0 mm  6.9 °C 20.3 °C
Torino Regio Parco (TO) 23/10/18 17.27 19.3 °C 51 % 8.9 °C 1021.2 hPa 3.5 Km/h SW 0.0 mm  8.5 °C 21.7 °C
Torri (FI) 23/10/18 17.15 18.4 °C 48 % 7.2 °C 1018.5 hPa 0.0 Km/h --- 0.0 mm  11.4 °C 20.1 °C
Torrita di Siena (SI) 23/10/18 17.20 18.1 °C 48 % 6.9 °C 1019.9 hPa 8.0 Km/h NNE 0.0 mm  11.2 °C 19.6 °C
Tregnago Loc. Centro (VR) 23/10/18 17.20 14.1 °C 63 % 7.1 °C 1013.2 hPa 14.5 Km/h WNW 0.0 mm  9.5 °C 15.8 °C
Trento (TN) 23/10/18 17.29 16.9 °C 48 % 5.8 °C 1017.9 hPa 6.4 Km/h SW 0.0 mm  6.3 °C 18.7 °C
Treviso (TV) 23/10/18 17.28 18.2 °C 48 % 7.0 °C 1018.2 hPa 4.0 Km/h O 0.0 mm  6.3 °C 20.3 °C
Tuscania (VT) 23/10/18 08.45 14.6 °C 68 % 8.8 °C 1018.6 hPa 7.8 Km/h NE 0.0 mm  13.2 °C 14.6 °C
Val Lastaro (VI) 23/10/18 17.24 9.1 °C 80 % 6.1 °C 1021.4 hPa 0.0 Km/h S 0.0 mm  -1.5 °C 12.8 °C
Valdagno (VI) 23/10/18 17.29 16.1 °C 63 % 9.1 °C 1000.7 hPa 5.0 Km/h W 0.0 mm  6.9 °C 20.9 °C
Valdobbiadene San Pietro di Barbozza (TV) 23/10/18 17.25 15.1 °C 57 % 6.6 °C 1018.0 hPa 4.8 Km/h NW 0.0 mm  10.5 °C 17.4 °C
Valentano (VT) 23/10/18 17.29 15.1 °C 59 % 7.2 °C 1017.0 hPa 6.5 Km/h NNE 0.0 mm  10.2 °C 16.6 °C
Valenza (AL) 23/10/18 17.20 19.1 °C 51 % 8.7 °C 1019.4 hPa 1.6 Km/h S 0.0 mm  5.9 °C 19.4 °C
Valli del Pasubio loc. Gisbenti (VI) 23/10/18 17.28 12.8 °C 78 % 9.1 °C 974.0 hPa 0.0 Km/h --- 0.0 mm  3.7 °C 17.7 °C
Varese Ligure (SP) 23/10/18 17.28 19.3 °C 10 % -13.1 °C 1008.9 hPa 0.0 Km/h O 0.0 mm  9.0 °C 21.7 °C
Vasto (CH) 23/10/18 17.29 18.4 °C 10 % -13.8 °C 1017.0 hPa 8.1 Km/h N 1.5 mm  14.1 °C 19.3 °C
Vattaro fraz. Pian dei Pradi (TN) 23/10/18 17.27 10.8 °C 64 % 4.2 °C 1020.9 hPa 3.2 Km/h NNW 0.0 mm  4.1 °C 14.1 °C
Vazzo Roveré Veronese (VR) 23/10/18 17.29 10.1 °C 72 % 5.2 °C 1016.6 hPa 8.0 Km/h NW 0.0 mm  6.4 °C 15.7 °C
Verona Bgo Venezia (iz3sly) (VR) 23/10/18 12.18 17.7 °C 51 % 7.4 °C 1022.2 hPa 3.2 Km/h WSW 0.0 mm  7.1 °C 17.9 °C
Verona Cadidavid2 (VR) 23/10/18 17.15 18.9 °C 46 % 7.0 °C 1018.5 hPa 7.9 Km/h W 0.0 mm  5.0 °C 19.6 °C
Vicenza Pecori Giraldi (VI) 23/10/18 17.15 19.1 °C 55 % 9.8 °C 1015.0 hPa 0.3 Km/h S 0.0 mm  7.0 °C 20.6 °C
Vicenza S. Lazzaro (VI) 23/10/18 17.29 18.6 °C 51 % 8.3 °C 1017.3 hPa 2.0 Km/h WSW 0.0 mm  7.2 °C 19.8 °C
Vicenza San Gaetano (VI) 23/10/18 17.29 18.7 °C 53 % 8.9 °C 1017.9 hPa 0.1 Km/h NW 0.0 mm  7.1 °C 20.7 °C
Vieste (FG) 23/10/18 17.29 18.3 °C 65 % 11.6 °C 1018.5 hPa 23.4 Km/h W 2.6 mm  15.7 °C 19.6 °C
Vigardolo (VI) 23/10/18 17.19 18.4 °C 46 % 6.6 °C 1017.0 hPa 3.5 Km/h S 0.0 mm  7.5 °C 19.9 °C
Vigasio (VR) 23/10/18 17.20 19.5 °C 46 % 7.6 °C 1017.1 hPa 3.2 Km/h NW 0.0 mm  7.3 °C 20.2 °C
Villabartolomea (VR) 23/10/18 17.15 18.6 °C 50 % 7.8 °C 1017.8 hPa 4.8 Km/h WSW 0.0 mm  6.7 °C 19.7 °C
Viozene Toria (CN) 23/10/18 17.29 13.9 °C 44 % 1.9 °C 1017.1 hPa 0.0 Km/h SE 0.0 mm  7.0 °C 17.6 °C
Viterbo Santa Barbara (VT) 23/10/18 17.29 16.6 °C 58 % 8.3 °C 1016.8 hPa 14.5 Km/h N 0.0 mm  11.3 °C 18.8 °C
Vitorchiano Pallone (VT) 23/10/18 17.20 16.7 °C 60 % 8.9 °C 1016.6 hPa 11.3 Km/h NE 0.0 mm  11.1 °C 18.7 °C
Vittorio Veneto Parco Fenderl (TV) 23/10/18 17.10 16.0 °C 67 % 9.9 °C 1019.2 hPa 0.0 Km/h SW 0.0 mm  10.8 °C 20.4 °C
Volpago del Montello (TV) 23/10/18 17.15 15.4 °C 68 % 9.5 °C 1018.6 hPa 4.8 Km/h S 0.0 mm  8.4 °C 19.4 °C
 
(*) = Precipitazioni nelle ultime 24h.
Dati non aggiornati nell'ultima ora.
   
In collaborazione con: